Time;durP1;ratioP1;P1;durP2;ratioP2;P2;SDS_P1;SDS_P2;PMS_P1;PMS_P2;Temp;Humidity;BMP_temperature;BMP_pressure;BME280_temperature;BME280_humidity;BME280_pressure;Samples;Min_cycle;Max_cycle;Signal;HPM_P1;HPM_P2
2021/05/21 00:01:13;;;;;;;53.58;9.80;;;;;;;11.41;100.00;100515.94;5072046;28;20032;-63
2021/05/21 00:03:40;;;;;;;61.15;10.45;;;;;;;11.42;100.00;100520.31;5071701;28;20505;-62
2021/05/21 00:06:05;;;;;;;67.28;13.13;;;;;;;11.45;100.00;100507.00;5071871;28;20123;-62
2021/05/21 00:08:31;;;;;;;59.10;10.63;;;;;;;11.46;100.00;100508.66;5071778;28;20036;-63
2021/05/21 00:10:57;;;;;;;52.60;10.77;;;;;;;11.50;100.00;100508.94;5071755;28;20080;-62
2021/05/21 00:13:22;;;;;;;65.97;11.23;;;;;;;11.52;100.00;100490.38;5070435;28;20384;-62
2021/05/21 00:15:48;;;;;;;58.50;10.98;;;;;;;11.55;100.00;100498.06;5070601;28;20052;-63
2021/05/21 00:18:13;;;;;;;64.28;11.63;;;;;;;11.59;100.00;100484.69;5071687;28;20036;-62
2021/05/21 00:20:39;;;;;;;56.03;12.30;;;;;;;11.61;100.00;100480.59;5071600;28;20048;-63
2021/05/21 00:23:05;;;;;;;55.40;10.90;;;;;;;11.60;100.00;100503.56;5071530;28;20127;-62
2021/05/21 00:25:30;;;;;;;52.42;10.20;;;;;;;11.60;100.00;100503.56;5069981;28;20072;-63
2021/05/21 00:27:56;;;;;;;53.17;10.43;;;;;;;11.61;100.00;100474.31;5071542;28;20062;-63
2021/05/21 00:30:22;;;;;;;56.97;9.80;;;;;;;11.61;100.00;100458.72;5071398;28;20045;-63
2021/05/21 00:32:47;;;;;;;62.85;9.85;;;;;;;11.61;100.00;100464.19;5071908;28;20050;-61
2021/05/21 00:35:13;;;;;;;46.72;9.68;;;;;;;11.60;100.00;100459.81;5071301;28;20459;-63
2021/05/21 00:37:39;;;;;;;62.20;9.98;;;;;;;11.60;100.00;100481.69;5071441;28;20037;-63
2021/05/21 00:40:05;;;;;;;45.83;9.32;;;;;;;11.58;100.00;100451.03;5071226;28;20033;-62
2021/05/21 00:42:32;;;;;;;49.80;10.63;;;;;;;11.59;100.00;100451.88;5071260;28;20075;-62
2021/05/21 00:44:58;;;;;;;58.40;10.23;;;;;;;11.58;100.00;100440.09;5070866;28;20036;-62
2021/05/21 00:47:26;;;;;;;60.50;11.07;;;;;;;11.59;100.00;100457.34;5070939;28;20460;-63
2021/05/21 00:49:52;;;;;;;59.53;10.00;;;;;;;11.58;100.00;100461.97;5071157;28;20044;-63
2021/05/21 00:52:18;;;;;;;54.30;10.15;;;;;;;11.58;100.00;100451.03;5071495;28;20032;-62
2021/05/21 00:54:47;;;;;;;50.03;8.60;;;;;;;11.60;100.00;100448.88;5071040;28;20028;-63
2021/05/21 00:57:14;;;;;;;52.38;9.98;;;;;;;11.62;100.00;100446.69;5070959;28;20028;-63
2021/05/21 00:59:40;;;;;;;59.08;10.20;;;;;;;11.62;100.00;100419.34;5070842;28;20045;-64
2021/05/21 01:02:07;;;;;;;57.75;10.93;;;;;;;11.63;100.00;100453.03;5071069;28;20114;-62
2021/05/21 01:04:34;;;;;;;55.13;10.02;;;;;;;11.64;100.00;100460.97;5070827;28;20043;-62
2021/05/21 01:07:01;;;;;;;42.28;8.85;;;;;;;11.65;100.00;100432.53;5070967;28;20041;-63
2021/05/21 01:09:27;;;;;;;55.90;9.32;;;;;;;11.67;100.00;100433.09;5071060;28;20036;-63
2021/05/21 01:11:53;;;;;;;52.17;10.27;;;;;;;11.69;100.00;100406.28;5071025;28;20124;-62
2021/05/21 01:14:52;;;;;;;44.55;8.45;;;;;;;11.69;100.00;100422.72;5070874;28;20109;-64
2021/05/21 01:17:18;;;;;;;56.92;9.07;;;;;;;11.70;100.00;100421.63;5070875;28;20489;-61
2021/05/21 01:19:43;;;;;;;47.00;8.52;;;;;;;11.71;100.00;100417.78;5070690;28;20035;-62
2021/05/21 01:22:11;;;;;;;39.92;7.63;;;;;;;11.71;100.00;100409.59;5070693;28;20044;-63
2021/05/21 01:24:38;;;;;;;43.40;8.98;;;;;;;11.71;100.00;100445.16;5070675;28;20085;-62
2021/05/21 01:27:05;;;;;;;45.00;8.20;;;;;;;11.62;100.00;100402.94;5073737;28;20089;-63
2021/05/21 01:29:31;;;;;;;40.63;6.53;;;;;;;11.57;100.00;100419.31;5074866;28;20040;-62
2021/05/21 01:31:57;;;;;;;49.88;9.10;;;;;;;11.53;100.00;100415.44;5074765;28;20089;-63
2021/05/21 01:34:22;;;;;;;52.95;9.55;;;;;;;11.55;100.00;100446.09;5074745;28;20040;-63
2021/05/21 01:36:48;;;;;;;50.05;10.07;;;;;;;11.51;100.00;100412.16;5074708;28;20036;-62
2021/05/21 01:39:14;;;;;;;45.25;8.02;;;;;;;11.50;100.00;100426.91;5074628;28;20441;-63
2021/05/21 01:41:41;;;;;;;54.58;9.18;;;;;;;11.47;100.00;100411.84;5073226;28;20044;-62
2021/05/21 01:44:09;;;;;;;63.85;9.90;;;;;;;11.48;100.00;100420.88;5074579;28;20117;-62
2021/05/21 01:46:36;;;;;;;53.97;10.38;;;;;;;11.53;100.00;100355.28;5074562;28;20035;-63
2021/05/21 01:49:03;;;;;;;50.05;9.10;;;;;;;11.54;100.00;100406.16;5074497;28;20037;-63
2021/05/21 01:51:30;;;;;;;43.72;8.18;;;;;;;11.55;100.00;100385.91;5074497;28;20040;-62
2021/05/21 01:54:13;;;;;;;46.33;8.38;;;;;;;11.54;100.00;100353.38;5074308;28;20042;-62
2021/05/21 01:56:38;;;;;;;44.17;8.95;;;;;;;11.53;100.00;100404.50;5074252;28;20040;-63
2021/05/21 01:59:04;;;;;;;41.28;8.73;;;;;;;11.50;100.00;100396.81;5073046;28;20040;-63
2021/05/21 02:01:30;;;;;;;46.55;8.40;;;;;;;11.48;100.00;100401.72;5074276;28;20486;-62
2021/05/21 02:03:59;;;;;;;49.08;8.68;;;;;;;11.46;100.00;100390.22;5074314;28;20043;-62
2021/05/21 02:06:26;;;;;;;50.67;8.18;;;;;;;11.49;100.00;100386.97;5074506;28;20498;-64
2021/05/21 02:08:52;;;;;;;51.15;11.10;;;;;;;11.56;100.00;100392.22;5074000;28;20043;-62
2021/05/21 02:11:18;;;;;;;48.15;8.95;;;;;;;11.57;100.00;100383.75;5073989;28;20039;-63
2021/05/21 02:13:44;;;;;;;45.58;8.93;;;;;;;11.60;100.00;100380.47;5073863;28;20037;-64
2021/05/21 02:16:09;;;;;;;57.13;9.98;;;;;;;11.61;100.00;100373.94;5074064;28;20418;-62
2021/05/21 02:18:35;;;;;;;43.10;7.88;;;;;;;11.62;100.00;100377.47;5074043;28;20044;-63
2021/05/21 02:21:01;;;;;;;43.55;8.48;;;;;;;11.63;100.00;100377.25;5073959;28;20043;-62
2021/05/21 02:23:26;;;;;;;52.85;10.32;;;;;;;11.62;100.00;100370.09;5073768;28;20040;-63
2021/05/21 02:25:52;;;;;;;40.80;8.32;;;;;;;11.61;100.00;100367.63;5073549;28;20048;-63
2021/05/21 02:28:17;;;;;;;49.25;10.23;;;;;;;11.60;100.00;100394.16;5072668;28;20033;-62
2021/05/21 02:30:43;;;;;;;64.57;11.50;;;;;;;11.58;100.00;100374.44;5073697;28;20521;-62
2021/05/21 02:33:09;;;;;;;45.95;10.85;;;;;;;11.56;100.00;100375.81;5073736;28;20044;-62
2021/05/21 02:35:35;;;;;;;49.90;8.98;;;;;;;11.51;100.00;100368.38;5073674;28;20055;-62
2021/05/21 02:38:00;;;;;;;47.22;9.40;;;;;;;11.51;100.00;100360.19;5072655;28;20037;-62
2021/05/21 02:40:26;;;;;;;40.10;7.43;;;;;;;11.52;100.00;100374.69;5073569;28;20462;-63
2021/05/21 02:42:52;;;;;;;38.20;8.77;;;;;;;11.58;100.00;100359.94;5073627;28;20038;-62
2021/05/21 02:45:18;;;;;;;37.05;7.63;;;;;;;11.59;100.00;100356.94;5073549;28;20402;-64
2021/05/21 02:47:44;;;;;;;35.42;8.27;;;;;;;11.63;100.00;100338.97;5073283;28;20040;-62
2021/05/21 02:50:10;;;;;;;44.75;8.05;;;;;;;11.67;100.00;100350.19;5073302;28;20145;-62
2021/05/21 02:52:36;;;;;;;41.85;8.90;;;;;;;11.65;100.00;100361.41;5073342;28;20043;-62
2021/05/21 02:55:03;;;;;;;62.05;11.05;;;;;;;11.66;100.00;100357.56;5073272;28;20544;-63
2021/05/21 02:57:29;;;;;;;52.45;8.82;;;;;;;11.63;100.00;100333.50;5073289;28;20039;-62
2021/05/21 02:59:54;;;;;;;47.67;9.20;;;;;;;11.59;100.00;100359.69;5073081;28;20040;-63
2021/05/21 03:02:21;;;;;;;51.42;8.65;;;;;;;11.58;100.00;100374.44;5073065;28;20047;-62
2021/05/21 03:04:47;;;;;;;45.03;9.35;;;;;;;11.58;100.00;100347.09;5072969;28;20043;-63
2021/05/21 03:07:13;;;;;;;47.15;8.63;;;;;;;11.57;100.00;100336.44;5071731;28;20398;-61
2021/05/21 03:09:38;;;;;;;44.15;8.85;;;;;;;11.57;100.00;100350.09;5073085;28;20033;-62
2021/05/21 03:12:04;;;;;;;48.85;8.07;;;;;;;11.55;100.00;100352.28;5073095;28;20043;-63
2021/05/21 03:14:30;;;;;;;47.20;9.70;;;;;;;11.55;100.00;100361.31;5072854;28;20457;-62
2021/05/21 03:16:56;;;;;;;44.63;9.95;;;;;;;11.59;100.00;100332.34;5072875;28;20051;-62
2021/05/21 03:19:21;;;;;;;42.47;7.63;;;;;;;11.57;100.00;100331.78;5072700;28;20474;-63
2021/05/21 03:21:47;;;;;;;40.13;7.68;;;;;;;11.60;100.00;100319.47;5072658;28;20040;-63
2021/05/21 03:24:13;;;;;;;46.72;9.05;;;;;;;11.62;100.00;100342.75;5071114;28;20062;-63
2021/05/21 03:26:38;;;;;;;51.35;8.75;;;;;;;11.61;100.00;100323.88;5071270;28;20102;-63
2021/05/21 03:29:04;;;;;;;43.05;7.65;;;;;;;11.56;100.00;100332.03;5072809;28;20115;-63
2021/05/21 03:31:30;;;;;;;58.17;10.48;;;;;;;11.50;100.00;100309.31;5072599;28;20090;-62
2021/05/21 03:33:56;;;;;;;48.47;9.82;;;;;;;11.45;100.00;100322.91;5072402;28;20406;-63
2021/05/21 03:36:21;;;;;;;47.60;9.00;;;;;;;11.43;100.00;100319.63;5072350;28;20040;-63
2021/05/21 03:38:47;;;;;;;54.03;10.40;;;;;;;11.45;100.00;100317.44;5072458;28;20036;-62
2021/05/21 03:41:13;;;;;;;54.92;10.23;;;;;;;11.42;100.00;100323.44;5072356;28;20070;-62
2021/05/21 03:43:38;;;;;;;50.75;8.93;;;;;;;11.39;100.00;100332.16;5072275;28;20508;-63
2021/05/21 03:46:04;;;;;;;43.88;9.05;;;;;;;11.34;100.00;100313.00;5072230;28;20041;-63
2021/05/21 03:48:30;;;;;;;49.00;9.70;;;;;;;11.30;100.00;100300.94;5072064;28;20487;-64
2021/05/21 03:50:56;;;;;;;43.45;9.65;;;;;;;11.26;100.00;100284.22;5072088;28;20089;-63
2021/05/21 03:53:21;;;;;;;43.50;8.77;;;;;;;11.26;100.00;100288.84;5071926;28;20033;-63
2021/05/21 03:55:47;;;;;;;46.85;9.18;;;;;;;11.28;100.00;100282.06;5072074;28;20433;-62
2021/05/21 03:58:13;;;;;;;47.65;8.80;;;;;;;11.30;100.00;100285.34;5072120;28;20029;-63
2021/05/21 04:00:38;;;;;;;38.00;8.25;;;;;;;11.33;100.00;100286.75;5072282;28;20379;-63
2021/05/21 04:03:06;;;;;;;42.60;7.75;;;;;;;11.36;100.00;100272.53;5072180;28;20544;-62
2021/05/21 04:05:33;;;;;;;39.63;8.02;;;;;;;11.37;100.00;100279.66;5073160;28;20033;-63
2021/05/21 04:07:59;;;;;;;58.55;9.23;;;;;;;11.39;100.00;100272.84;5074537;28;20040;-62
2021/05/21 04:10:26;;;;;;;37.90;9.02;;;;;;;11.42;100.00;100277.78;5071637;28;20082;-62
2021/05/21 04:12:52;;;;;;;38.90;8.65;;;;;;;11.41;100.00;100297.19;5071589;28;20542;-62
2021/05/21 04:15:18;;;;;;;46.20;8.52;;;;;;;11.43;100.00;100264.94;5071518;28;20064;-62
2021/05/21 04:17:44;;;;;;;46.85;9.02;;;;;;;11.45;100.00;100282.75;5071667;28;20028;-63
2021/05/21 04:20:10;;;;;;;35.20;7.95;;;;;;;11.45;100.00;100271.81;5071488;28;20039;-62
2021/05/21 04:22:36;;;;;;;42.85;7.78;;;;;;;11.47;100.00;100286.06;5071335;28;20099;-62
2021/05/21 04:25:03;;;;;;;43.03;7.40;;;;;;;11.49;100.00;100261.16;5071553;28;20051;-62
2021/05/21 04:27:29;;;;;;;38.92;7.78;;;;;;;11.49;100.00;100266.63;5071426;28;20040;-62
2021/05/21 04:29:55;;;;;;;41.97;8.05;;;;;;;11.47;100.00;100253.22;5071341;28;20444;-63
2021/05/21 04:32:21;;;;;;;52.25;7.93;;;;;;;11.48;100.00;100223.97;5071453;28;20413;-63
2021/05/21 04:34:47;;;;;;;30.88;6.57;;;;;;;11.46;100.00;100259.78;5071305;28;20402;-62
2021/05/21 04:37:12;;;;;;;57.65;9.25;;;;;;;11.45;100.00;100260.03;5071326;28;20565;-63
2021/05/21 04:39:40;;;;;;;36.70;7.57;;;;;;;11.42;100.00;100238.69;5071299;28;20096;-64
2021/05/21 04:42:05;;;;;;;42.95;7.40;;;;;;;11.40;100.00;100218.97;5071297;28;20049;-62
2021/05/21 04:44:31;;;;;;;39.88;6.85;;;;;;;11.42;100.00;100244.16;5071201;28;20577;-63
2021/05/21 04:46:57;;;;;;;42.05;8.52;;;;;;;11.44;100.00;100237.31;5071199;28;20502;-62
2021/05/21 04:49:32;;;;;;;40.10;8.32;;;;;;;11.46;100.00;100237.09;5070923;28;20033;-63
2021/05/21 04:52:02;;;;;;;53.13;8.30;;;;;;;11.46;100.00;100268.00;5069771;28;20078;-63
2021/05/21 04:54:28;;;;;;;36.08;6.97;;;;;;;11.47;100.00;100230.53;5071121;28;20036;-63
2021/05/21 04:56:54;;;;;;;31.23;7.18;;;;;;;11.47;100.00;100205.94;5071098;28;20528;-62
2021/05/21 04:59:20;;;;;;;27.77;6.53;;;;;;;11.50;100.00;100235.47;5071050;28;20139;-63
2021/05/21 05:01:46;;;;;;;37.63;7.35;;;;;;;11.53;100.00;100224.00;5070249;28;20048;-64
2021/05/21 05:04:11;;;;;;;36.60;7.55;;;;;;;11.58;100.00;100225.94;5071063;28;20037;-63
2021/05/21 05:06:37;;;;;;;44.90;7.97;;;;;;;11.56;100.00;100237.16;5070964;28;20035;-62
2021/05/21 05:09:04;;;;;;;43.03;7.97;;;;;;;11.54;100.00;100258.47;5070975;28;20032;-63
2021/05/21 05:11:33;;;;;;;47.80;8.25;;;;;;;11.54;100.00;100227.56;5102622;28;20051;-64
2021/05/21 05:14:03;;;;;;;48.58;9.02;;;;;;;11.55;100.00;100231.94;5070699;28;20040;-63
2021/05/21 05:16:30;;;;;;;47.33;8.82;;;;;;;11.50;100.00;100235.47;5070922;28;20074;-62
2021/05/21 05:18:56;;;;;;;41.70;8.38;;;;;;;11.50;100.00;100224.53;5070949;28;20062;-63
2021/05/21 05:21:22;;;;;;;55.13;9.10;;;;;;;11.50;100.00;100238.22;5070847;28;20039;-62
2021/05/21 05:23:49;;;;;;;51.08;9.18;;;;;;;11.50;100.00;100210.84;5070849;28;20055;-63
2021/05/21 05:26:16;;;;;;;45.95;8.68;;;;;;;11.51;100.00;100198.84;5070828;28;20043;-63
2021/05/21 05:28:43;;;;;;;48.33;8.23;;;;;;;11.54;100.00;100192.81;5070733;28;20123;-62
2021/05/21 05:31:11;;;;;;;54.67;8.88;;;;;;;11.54;100.00;100242.06;5070587;28;20490;-62
2021/05/21 05:33:37;;;;;;;34.20;6.97;;;;;;;11.54;100.00;100225.66;5070735;28;20032;-64
2021/05/21 05:36:03;;;;;;;50.67;7.80;;;;;;;11.55;100.00;100223.72;5070810;28;20494;-63
2021/05/21 05:38:31;;;;;;;36.33;7.65;;;;;;;11.56;100.00;100237.16;5070666;28;20036;-62
2021/05/21 05:40:57;;;;;;;44.80;7.65;;;;;;;11.55;100.00;100232.75;5070533;28;20433;-62
2021/05/21 05:43:23;;;;;;;39.22;8.02;;;;;;;11.55;100.00;100238.22;5070467;28;20119;-64
2021/05/21 05:45:49;;;;;;;41.75;7.68;;;;;;;11.52;100.00;100237.94;5070649;28;20111;-63
2021/05/21 05:48:18;;;;;;;40.13;6.97;;;;;;;11.53;100.00;100229.47;5070568;28;20513;-63
2021/05/21 05:50:44;;;;;;;41.15;7.28;;;;;;;11.55;100.00;100246.44;5070777;28;20041;-62
2021/05/21 05:53:10;;;;;;;36.13;7.05;;;;;;;11.58;100.00;100215.00;5070584;28;20060;-63
2021/05/21 05:55:35;;;;;;;38.13;7.40;;;;;;;11.59;100.00;100194.75;5070600;28;20447;-63
2021/05/21 05:58:01;;;;;;;28.48;5.15;;;;;;;11.60;100.00;100202.69;5070463;28;20036;-62
2021/05/21 06:00:26;;;;;;;42.13;7.32;;;;;;;11.61;100.00;100237.16;5070591;28;20033;-63
2021/05/21 06:02:52;;;;;;;44.35;6.93;;;;;;;11.62;100.00;100241.53;5070427;28;20395;-63
2021/05/21 06:05:17;;;;;;;52.78;9.18;;;;;;;11.61;100.00;100231.69;5070368;28;20037;-62
2021/05/21 06:07:43;;;;;;;49.55;10.43;;;;;;;11.59;100.00;100252.19;5070296;28;20064;-62
2021/05/21 06:10:10;;;;;;;53.40;9.23;;;;;;;11.57;100.00;100230.59;5070487;28;20481;-62
2021/05/21 06:12:36;;;;;;;36.28;7.13;;;;;;;11.53;100.00;100248.63;5072229;28;20032;-63
2021/05/21 06:15:02;;;;;;;46.17;8.05;;;;;;;11.54;100.00;100211.97;5073779;28;20048;-63
2021/05/21 06:17:28;;;;;;;47.05;7.88;;;;;;;11.59;100.00;100238.53;5074022;28;20456;-62
2021/05/21 06:19:54;;;;;;;38.15;7.72;;;;;;;11.60;100.00;100235.53;5073816;28;20044;-63
2021/05/21 06:22:20;;;;;;;30.35;6.57;;;;;;;11.59;100.00;100244.81;5074006;28;20094;-62
2021/05/21 06:24:47;;;;;;;25.30;4.80;;;;;;;11.60;100.00;100224.59;5072295;28;20040;-63
2021/05/21 06:27:19;;;;;;;42.13;8.30;;;;;;;11.60;100.00;100249.19;5073781;28;20060;-63
2021/05/21 06:29:46;;;;;;;41.90;7.38;;;;;;;11.58;100.00;100245.91;5073765;28;20040;-64
2021/05/21 06:32:11;;;;;;;51.28;9.73;;;;;;;11.51;100.00;100269.13;5073704;28;20043;-63
2021/05/21 06:34:37;;;;;;;46.53;8.25;;;;;;;11.48;100.00;100248.59;5073700;28;20028;-63
2021/05/21 06:37:03;;;;;;;36.83;6.78;;;;;;;11.46;100.00;100267.16;5073918;28;20410;-63
2021/05/21 06:39:28;;;;;;;32.08;6.75;;;;;;;11.47;100.00;100257.88;5072513;28;20051;-63
2021/05/21 06:41:54;;;;;;;39.55;7.25;;;;;;;11.50;100.00;100257.34;5073521;28;20036;-63
2021/05/21 06:44:19;;;;;;;45.03;6.57;;;;;;;11.48;100.00;100286.88;5073505;28;20490;-64
2021/05/21 06:46:45;;;;;;;35.55;6.80;;;;;;;11.47;100.00;100279.75;5072091;28;20041;-62
2021/05/21 06:49:14;;;;;;;31.25;5.82;;;;;;;11.45;100.00;100244.47;5073415;28;20614;-62
2021/05/21 06:51:41;;;;;;;46.97;6.53;;;;;;;11.46;100.00;100267.16;5073194;28;20037;-63
2021/05/21 06:54:07;;;;;;;34.38;6.03;;;;;;;11.49;100.00;100217.41;5073136;28;20380;-62
2021/05/21 06:56:35;;;;;;;27.25;5.75;;;;;;;11.43;100.00;100279.44;5072050;28;20035;-62
2021/05/21 06:59:04;;;;;;;27.67;5.18;;;;;;;11.41;100.00;100261.66;5073353;28;20485;-62
2021/05/21 07:01:30;;;;;;;27.83;6.35;;;;;;;11.37;100.00;100258.59;5073086;28;20179;-62
2021/05/21 07:03:57;;;;;;;31.40;5.70;;;;;;;11.39;100.00;100255.63;5073166;28;20064;-62
2021/05/21 07:06:23;;;;;;;35.50;7.45;;;;;;;11.37;100.00;100279.66;5073140;28;20036;-63
2021/05/21 07:08:50;;;;;;;39.97;7.97;;;;;;;11.39;100.00;100277.47;5073156;28;20052;-62
2021/05/21 07:11:16;;;;;;;38.28;7.50;;;;;;;11.41;100.00;100269.84;5073185;28;20037;-62
2021/05/21 07:13:41;;;;;;;40.90;7.35;;;;;;;11.48;100.00;100278.66;5072934;28;20497;-62
2021/05/21 07:16:07;;;;;;;30.98;6.03;;;;;;;11.59;100.00;100260.41;5072909;28;20059;-63
2021/05/21 07:18:32;;;;;;;39.60;7.10;;;;;;;11.70;100.00;100273.91;5072852;28;20033;-63
2021/05/21 07:21:04;;;;;;;43.75;7.78;;;;;;;11.81;100.00;100257.59;5072792;28;20387;-63
2021/05/21 07:23:30;;;;;;;40.70;7.80;;;;;;;11.81;100.00;100290.41;5072144;28;20036;-63
2021/05/21 07:25:55;;;;;;;23.80;5.28;;;;;;;11.78;100.00;100259.72;5072599;28;20052;-62
2021/05/21 07:28:21;;;;;;;32.92;6.10;;;;;;;11.87;100.00;100264.72;5072871;28;20037;-62
2021/05/21 07:30:47;;;;;;;35.70;7.03;;;;;;;11.89;100.00;100243.38;5072672;28;20098;-62
2021/05/21 07:33:13;;;;;;;30.77;6.60;;;;;;;11.96;100.00;100233.00;5072826;28;20085;-63
2021/05/21 07:35:38;;;;;;;48.75;8.88;;;;;;;12.02;100.00;100237.44;5072816;28;20040;-62
2021/05/21 07:38:04;;;;;;;35.80;7.53;;;;;;;12.03;100.00;100226.22;5073051;28;20478;-63
2021/05/21 07:40:30;;;;;;;39.70;6.70;;;;;;;12.06;100.00;100211.19;5071835;28;20051;-63
2021/05/21 07:42:56;;;;;;;34.75;6.57;;;;;;;12.09;100.00;100238.00;5072106;28;20044;-64
2021/05/21 07:45:22;;;;;;;47.15;7.78;;;;;;;12.04;100.00;100240.72;5071557;28;20037;-64
2021/05/21 07:47:48;;;;;;;36.58;7.20;;;;;;;11.95;100.00;100143.81;5070622;28;20052;-61
2021/05/21 07:50:14;;;;;;;30.05;5.28;;;;;;;11.82;100.00;100199.88;5070899;28;20036;-62
2021/05/21 07:52:40;;;;;;;35.25;4.93;;;;;;;11.77;100.00;100214.28;5071096;28;20032;-63
2021/05/21 07:55:06;;;;;;;25.95;5.38;;;;;;;11.63;100.00;100251.44;5070754;28;20060;-63
2021/05/21 07:57:32;;;;;;;32.72;6.05;;;;;;;11.54;100.00;100160.00;5070059;28;20383;-63
2021/05/21 07:59:58;;;;;;;35.50;5.43;;;;;;;11.52;100.00;100211.41;5071190;28;20032;-62
2021/05/21 08:02:24;;;;;;;34.33;5.95;;;;;;;11.61;100.00;100204.34;5071044;28;20036;-63
2021/05/21 08:04:50;;;;;;;29.33;6.20;;;;;;;11.72;100.00;100195.13;5070753;28;20040;-62
2021/05/21 08:07:16;;;;;;;26.00;4.85;;;;;;;11.70;100.00;100191.81;5071332;28;20029;-61
2021/05/21 08:09:45;;;;;;;40.33;6.53;;;;;;;11.98;100.00;100187.06;5070860;28;20051;-63
2021/05/21 08:12:11;;;;;;;30.50;5.00;;;;;;;12.08;100.00;100187.09;5071081;28;20044;-64
2021/05/21 08:14:36;;;;;;;28.60;4.97;;;;;;;12.20;100.00;100195.91;5070692;28;20051;-65
2021/05/21 08:17:02;;;;;;;29.05;5.70;;;;;;;12.34;100.00;100190.75;5071318;28;20033;-63
2021/05/21 08:19:28;;;;;;;43.63;6.03;;;;;;;12.38;100.00;100186.38;5070834;28;20036;-61
2021/05/21 08:21:54;;;;;;;34.60;5.63;;;;;;;12.40;100.00;100194.31;5070807;28;20036;-61
2021/05/21 08:24:20;;;;;;;37.20;7.05;;;;;;;12.44;100.00;100162.56;5070819;28;20578;-63
2021/05/21 08:26:45;;;;;;;44.70;7.22;;;;;;;12.71;100.00;100192.47;5071122;28;20043;-64
2021/05/21 08:29:11;;;;;;;40.10;7.03;;;;;;;12.80;100.00;100204.53;5070700;28;20032;-62
2021/05/21 08:31:37;;;;;;;34.72;6.25;;;;;;;12.82;100.00;100185.88;5070313;28;20054;-66
2021/05/21 08:34:03;;;;;;;41.40;7.40;;;;;;;12.75;100.00;100172.47;5059410;28;20044;-64
2021/05/21 08:36:29;;;;;;;28.42;6.15;;;;;;;12.71;100.00;100182.34;5068791;28;20496;-67
2021/05/21 08:38:54;;;;;;;39.22;6.80;;;;;;;12.65;100.00;100164.22;5068337;28;20151;-65
2021/05/21 08:41:25;;;;;;;40.28;7.18;;;;;;;12.64;100.00;100162.56;5068752;28;20036;-63
2021/05/21 08:43:52;;;;;;;27.00;5.63;;;;;;;12.58;100.00;100180.13;5070135;28;20040;-67
2021/05/21 08:46:21;;;;;;;37.00;6.28;;;;;;;12.54;100.00;100168.06;5070089;28;20133;-64
2021/05/21 08:48:47;;;;;;;36.42;6.40;;;;;;;12.50;100.00;100189.69;5068750;28;20024;-64
2021/05/21 08:51:17;;;;;;;45.00;7.13;;;;;;;12.46;100.00;100198.72;5070301;28;20427;-64
2021/05/21 08:53:43;;;;;;;51.13;7.47;;;;;;;12.36;100.00;100183.91;5070044;28;20045;-66
2021/05/21 08:56:10;;;;;;;39.85;6.57;;;;;;;12.36;100.00;100178.44;5070327;28;20036;-62
2021/05/21 08:58:37;;;;;;;27.58;6.05;;;;;;;12.36;100.00;100199.53;5069898;28;20037;-64
2021/05/21 09:01:04;;;;;;;40.15;6.60;;;;;;;12.31;100.00;100208.53;5070311;28;20115;-65
2021/05/21 09:03:31;;;;;;;35.22;7.22;;;;;;;12.33;100.00;100206.38;5069109;28;20523;-66
2021/05/21 09:06:20;;;;;;;25.00;5.53;;;;;;;12.26;100.00;100205.78;5069093;28;20068;-64
2021/05/21 09:08:59;;;;;;;31.20;5.43;;;;;;;12.25;100.00;100203.31;5069000;28;20028;-65
2021/05/21 09:11:33;;;;;;;35.22;6.78;;;;;;;12.26;100.00;100194.81;5069224;28;20530;-66
2021/05/21 09:14:04;;;;;;;46.15;7.28;;;;;;;12.31;100.00;100200.31;5070520;28;20036;-66
2021/05/21 09:16:32;;;;;;;35.05;5.78;;;;;;;12.45;100.00;100186.09;5069960;28;20125;-65
2021/05/21 09:19:03;;;;;;;27.88;4.95;;;;;;;12.60;100.00;100200.66;5070178;28;20033;-62
2021/05/21 09:22:07;;;;;;;34.25;5.30;;;;;;;12.81;100.00;100200.69;5070420;28;20039;-62
2021/05/21 09:24:39;;;;;;;24.92;5.35;;;;;;;12.95;100.00;100216.31;5070366;28;20040;-63
2021/05/21 09:27:06;;;;;;;18.50;3.85;;;;;;;12.96;100.00;100154.91;5069875;28;20036;-65
2021/05/21 09:29:46;;;;;;;18.17;3.50;;;;;;;12.96;100.00;100242.63;5070762;28;20050;-65
2021/05/21 09:32:22;;;;;;;17.42;3.55;;;;;;;12.94;100.00;100216.59;5070984;28;20040;-64
2021/05/21 09:35:06;;;;;;;18.08;3.47;;;;;;;12.92;100.00;100225.09;5070402;28;20044;-64
2021/05/21 09:37:35;;;;;;;9.82;2.10;;;;;;;12.91;100.00;100233.59;5070666;28;20029;-63
2021/05/21 09:40:06;;;;;;;15.48;2.33;;;;;;;12.85;100.00;100249.22;5070502;28;20394;-64
2021/05/21 09:42:54;;;;;;;11.50;2.35;;;;;;;12.85;100.00;100262.09;5070537;28;20036;-64
2021/05/21 09:45:25;;;;;;;14.38;2.92;;;;;;;12.76;100.00;100242.63;5070243;28;20044;-64
2021/05/21 09:48:10;;;;;;;18.20;3.65;;;;;;;12.71;100.00;100222.59;5073041;28;20091;-64
2021/05/21 09:50:38;;;;;;;20.80;3.95;;;;;;;12.83;100.00;100247.81;5074593;28;20040;-64
2021/05/21 09:53:09;;;;;;;24.70;4.10;;;;;;;12.77;100.00;100233.28;5074175;28;20037;-64
2021/05/21 09:55:45;;;;;;;30.10;4.30;;;;;;;12.84;100.00;100225.66;5073670;28;20025;-65
2021/05/21 09:58:33;;;;;;;22.10;4.00;;;;;;;12.67;100.00;100244.25;5074480;28;20395;-64
2021/05/21 10:01:17;;;;;;;26.63;4.20;;;;;;;12.60;100.00;100239.00;5074387;28;20060;-64
2021/05/21 10:03:44;;;;;;;30.10;4.10;;;;;;;12.56;100.00;100231.63;5074067;28;20081;-64
2021/05/21 10:06:11;;;;;;;21.85;5.40;;;;;;;12.33;100.00;100239.22;5074011;28;20470;-65
2021/05/21 10:08:40;;;;;;;32.45;5.45;;;;;;;12.30;100.00;100239.72;5073952;28;20360;-63
2021/05/21 10:11:07;;;;;;;33.03;5.85;;;;;;;12.22;100.00;100220.28;5074082;28;20036;-64
2021/05/21 10:13:33;;;;;;;23.77;4.60;;;;;;;12.13;100.00;100233.66;5073869;28;20075;-64
2021/05/21 10:16:00;;;;;;;28.83;6.57;;;;;;;12.11;100.00;100241.31;5073629;28;20053;-65
2021/05/21 10:18:29;;;;;;;29.88;4.82;;;;;;;12.14;100.00;100229.81;5073946;28;20734;-64
2021/05/21 10:20:56;;;;;;;30.65;5.63;;;;;;;12.20;100.00;100228.75;5073865;28;20033;-64
2021/05/21 10:23:31;;;;;;;33.45;5.30;;;;;;;12.32;100.00;100237.56;5073815;28;20043;-63
2021/05/21 10:26:02;;;;;;;27.83;4.53;;;;;;;12.42;100.00;100238.69;5073855;28;20037;-65
2021/05/21 10:28:30;;;;;;;35.17;5.40;;;;;;;12.49;100.00;100237.31;5073830;28;20101;-65
2021/05/21 10:31:05;;;;;;;27.80;5.03;;;;;;;12.53;100.00;100210.25;5073586;28;20093;-66
2021/05/21 10:33:32;;;;;;;27.67;5.20;;;;;;;12.53;100.00;100243.13;5073531;28;20040;-64
2021/05/21 10:36:16;;;;;;;30.20;5.78;;;;;;;12.51;100.00;100239.81;5073676;28;20035;-64
2021/05/21 10:39:09;;;;;;;32.53;4.93;;;;;;;12.51;100.00;100250.78;5073863;28;20028;-65
2021/05/21 10:41:36;;;;;;;37.90;5.18;;;;;;;12.53;100.00;100230.25;5073495;28;20397;-64
2021/05/21 10:44:27;;;;;;;24.10;4.03;;;;;;;12.51;100.00;100239.81;5073546;28;20029;-65
2021/05/21 10:47:35;;;;;;;31.80;5.40;;;;;;;12.58;100.00;100229.41;5071835;28;20039;-64
2021/05/21 10:50:03;;;;;;;34.00;7.10;;;;;;;12.63;100.00;100199.28;5049486;28;20174;-62
2021/05/21 10:52:52;;;;;;;30.42;5.97;;;;;;;12.68;100.00;100196.59;5073001;28;20052;-64
2021/05/21 10:55:19;;;;;;;32.45;5.35;;;;;;;12.74;100.00;100222.88;5072813;28;20028;-61
2021/05/21 10:57:59;;;;;;;44.22;6.60;;;;;;;12.73;100.00;100240.41;5105330;28;20040;-66
2021/05/21 11:00:25;;;;;;;37.65;5.93;;;;;;;12.65;100.00;100219.03;5072035;28;20035;-62
2021/05/21 11:02:52;;;;;;;30.77;5.22;;;;;;;12.64;100.00;100223.69;5072641;28;20565;-63
2021/05/21 11:05:22;;;;;;;24.20;4.53;;;;;;;12.64;100.00;100226.41;5072460;28;20073;-63
2021/05/21 11:07:52;;;;;;;32.65;4.43;;;;;;;12.71;100.00;100242.63;5072577;28;20113;-63
2021/05/21 11:10:33;;;;;;;24.80;4.32;;;;;;;12.84;100.00;100239.34;5072835;28;20147;-63
2021/05/21 11:13:18;;;;;;;19.23;3.05;;;;;;;13.06;100.00;100208.13;5072473;28;20034;-63